Time;durP1;ratioP1;P1;durP2;ratioP2;P2;SDS_P1;SDS_P2;PMS_P1;PMS_P2;Temp;Humidity;BMP_temperature;BMP_pressure;BME280_temperature;BME280_humidity;BME280_pressure;Samples;Min_cycle;Max_cycle;Signal;HPM_P1;HPM_P2
2023/01/01 00:00:04;;;;;;;11.27;6.27;;;12.20;97.10;;;;;;472208;250;28518;-80
2023/01/01 00:02:06;;;;;;;10.87;6.50;;;12.30;96.90;;;;;;472150;252;28978;-80
2023/01/01 00:04:10;;;;;;;7.67;5.83;;;12.40;96.60;;;;;;472181;250;28716;-80
2023/01/01 00:06:07;;;;;;;7.13;5.70;;;12.30;96.60;;;;;;471754;252;28682;-79
2023/01/01 00:08:08;;;;;;;8.63;5.60;;;12.30;96.90;;;;;;472161;250;28357;-79
2023/01/01 00:10:28;;;;;;;8.00;5.67;;;12.40;96.80;;;;;;472165;250;28504;-80
2023/01/01 00:12:29;;;;;;;6.50;5.50;;;12.30;96.80;;;;;;472150;250;28409;-80
2023/01/01 00:14:30;;;;;;;5.33;4.40;;;12.30;97.10;;;;;;472162;251;28285;-80
2023/01/01 00:16:32;;;;;;;11.33;4.53;;;12.30;97.40;;;;;;472148;252;28717;-80
2023/01/01 00:18:33;;;;;;;6.47;5.23;;;12.30;97.50;;;;;;472195;247;28683;-81
2023/01/01 00:20:34;;;;;;;9.43;4.67;;;12.30;97.70;;;;;;472165;250;28823;-80
2023/01/01 00:22:35;;;;;;;5.40;4.50;;;12.30;97.60;;;;;;472205;246;29211;-80
2023/01/01 00:24:37;;;;;;;7.43;3.80;;;12.30;98.00;;;;;;472197;250;28371;-79
2023/01/01 00:26:38;;;;;;;8.27;4.07;;;12.20;98.10;;;;;;472153;250;28334;-80
2023/01/01 00:28:39;;;;;;;6.00;3.60;;;12.30;98.20;;;;;;472181;250;28275;-79
2023/01/01 00:30:41;;;;;;;5.10;3.30;;;12.40;98.10;;;;;;472196;250;28371;-80
2023/01/01 00:32:42;;;;;;;4.80;3.50;;;12.30;98.20;;;;;;472201;246;28543;-80
2023/01/01 00:34:43;;;;;;;4.77;2.90;;;12.30;98.40;;;;;;472186;250;28168;-79
2023/01/01 00:36:44;;;;;;;4.17;3.27;;;12.30;98.60;;;;;;472132;250;28486;-80
2023/01/01 00:38:46;;;;;;;3.63;2.93;;;12.30;98.60;;;;;;472109;251;28559;-79
2023/01/01 00:40:47;;;;;;;5.13;3.20;;;12.40;98.60;;;;;;472152;250;29331;-80
2023/01/01 00:42:48;;;;;;;4.37;3.00;;;12.30;98.70;;;;;;472158;247;29010;-80
2023/01/01 00:44:49;;;;;;;3.23;2.93;;;12.40;98.50;;;;;;472132;251;28823;-81
2023/01/01 00:46:51;;;;;;;4.73;3.00;;;12.40;98.40;;;;;;472169;250;28878;-80
2023/01/01 00:48:52;;;;;;;2.90;2.53;;;12.40;98.50;;;;;;472117;247;28383;-79
2023/01/01 00:50:53;;;;;;;4.90;3.40;;;12.50;98.30;;;;;;472186;250;28283;-79
2023/01/01 00:52:54;;;;;;;3.20;2.80;;;12.40;98.40;;;;;;472198;250;28478;-80
2023/01/01 00:54:56;;;;;;;5.93;2.93;;;12.40;98.40;;;;;;472168;250;28229;-80
2023/01/01 00:56:57;;;;;;;5.00;3.10;;;12.40;98.70;;;;;;472141;250;28619;-79
2023/01/01 00:58:58;;;;;;;3.73;2.60;;;12.30;98.80;;;;;;472169;250;28206;-79
2023/01/01 01:00:59;;;;;;;4.77;2.80;;;12.30;98.90;;;;;;472212;250;28545;-79
2023/01/01 01:03:01;;;;;;;4.57;2.80;;;12.40;98.60;;;;;;472184;250;28861;-81
2023/01/01 01:05:03;;;;;;;3.00;2.70;;;12.40;98.40;;;;;;472167;250;28725;-79
2023/01/01 01:07:03;;;;;;;4.20;2.77;;;12.40;98.40;;;;;;472130;250;28904;-80
2023/01/01 01:09:06;;;;;;;5.10;2.87;;;12.30;98.90;;;;;;472173;250;30558;-80
2023/01/01 01:11:06;;;;;;;7.10;3.17;;;12.20;99.00;;;;;;472134;252;28343;-80
2023/01/01 01:13:07;;;;;;;2.73;2.40;;;12.20;98.80;;;;;;472214;247;28456;-79
2023/01/01 01:15:08;;;;;;;3.00;2.43;;;12.30;98.30;;;;;;472219;250;28390;-80
2023/01/01 01:17:09;;;;;;;4.17;2.60;;;12.30;97.90;;;;;;472179;250;28402;-79
2023/01/01 01:19:14;;;;;;;5.03;2.80;;;12.40;97.70;;;;;;472206;250;28369;-80
2023/01/01 01:21:12;;;;;;;4.63;2.80;;;12.40;97.80;;;;;;472014;252;28283;-80
2023/01/01 01:23:13;;;;;;;3.07;2.80;;;12.40;97.50;;;;;;472213;250;28416;-81
2023/01/01 01:25:14;;;;;;;3.00;2.70;;;12.30;97.50;;;;;;472209;250;28450;-80
2023/01/01 01:27:16;;;;;;;9.10;2.73;;;12.20;97.70;;;;;;472179;250;28346;-80
2023/01/01 01:29:17;;;;;;;4.00;3.10;;;12.30;97.20;;;;;;472201;250;28738;-80
2023/01/01 01:31:18;;;;;;;3.43;2.70;;;12.30;97.20;;;;;;472220;250;29054;-80
2023/01/01 01:33:19;;;;;;;3.60;2.67;;;12.20;97.30;;;;;;472174;250;28910;-80
2023/01/01 01:35:21;;;;;;;3.40;2.83;;;12.30;97.20;;;;;;472191;250;28452;-80
2023/01/01 01:37:22;;;;;;;6.50;2.60;;;12.30;97.20;;;;;;472173;250;28574;-79
2023/01/01 01:39:23;;;;;;;2.93;2.20;;;12.30;96.90;;;;;;472193;250;28322;-80
2023/01/01 01:41:24;;;;;;;4.47;3.07;;;12.40;96.30;;;;;;472210;250;28211;-80
2023/01/01 01:43:26;;;;;;;2.57;2.37;;;12.40;96.20;;;;;;472207;250;28199;-80
2023/01/01 01:45:27;;;;;;;5.00;2.70;;;12.40;96.00;;;;;;472152;251;28283;-80
2023/01/01 01:47:28;;;;;;;2.73;2.53;;;12.30;96.10;;;;;;472121;250;28135;-80
2023/01/01 01:49:29;;;;;;;4.20;2.70;;;12.30;96.40;;;;;;472190;250;28399;-81
2023/01/01 01:51:31;;;;;;;3.80;2.50;;;12.30;96.00;;;;;;472188;250;28398;-80
2023/01/01 01:53:32;;;;;;;8.63;2.97;;;12.30;95.80;;;;;;472236;250;28874;-80
2023/01/01 01:55:33;;;;;;;6.73;2.70;;;12.40;95.40;;;;;;472183;250;28930;-79
2023/01/01 01:57:34;;;;;;;4.07;2.37;;;12.30;95.50;;;;;;472185;250;28682;-80
2023/01/01 01:59:36;;;;;;;2.40;2.20;;;12.40;95.00;;;;;;472195;251;28410;-80
2023/01/01 02:01:37;;;;;;;4.50;2.50;;;12.40;94.80;;;;;;472193;250;28521;-80
2023/01/01 02:03:39;;;;;;;4.87;2.53;;;12.30;94.80;;;;;;472202;251;28189;-80
2023/01/01 02:05:39;;;;;;;5.33;2.27;;;12.30;94.90;;;;;;472173;250;28294;-80
2023/01/01 02:07:41;;;;;;;2.37;2.20;;;12.30;94.80;;;;;;472199;247;28395;-80
2023/01/01 02:09:42;;;;;;;3.73;2.83;;;12.30;94.60;;;;;;472193;250;28492;-80
2023/01/01 02:11:43;;;;;;;3.97;2.70;;;12.20;94.90;;;;;;472222;250;28641;-80
2023/01/01 02:13:44;;;;;;;7.00;2.73;;;12.20;94.70;;;;;;472191;250;28465;-79
2023/01/01 02:15:46;;;;;;;2.90;2.60;;;12.30;94.00;;;;;;472189;250;28946;-80
2023/01/01 02:17:47;;;;;;;4.70;2.50;;;12.30;93.90;;;;;;472167;250;29560;-79
2023/01/01 02:19:48;;;;;;;4.90;2.70;;;12.30;93.20;;;;;;471814;250;28905;-81
2023/01/01 02:21:49;;;;;;;3.23;2.87;;;12.40;93.30;;;;;;471489;250;29031;-80
2023/01/01 02:23:51;;;;;;;3.60;2.33;;;12.30;93.70;;;;;;471976;250;28497;-79
2023/01/01 02:25:52;;;;;;;7.80;2.93;;;12.20;93.50;;;;;;472177;250;28370;-79
2023/01/01 02:27:53;;;;;;;3.00;2.70;;;12.30;93.20;;;;;;472200;250;28357;-80
2023/01/01 02:29:54;;;;;;;6.00;2.43;;;12.30;93.10;;;;;;472222;250;28608;-80
2023/01/01 02:31:56;;;;;;;5.13;2.80;;;12.20;93.20;;;;;;472178;250;28421;-79
2023/01/01 02:33:57;;;;;;;6.63;2.27;;;12.20;92.90;;;;;;472215;250;28252;-80
2023/01/01 02:35:58;;;;;;;4.20;2.87;;;12.20;93.00;;;;;;472197;250;28290;-80
2023/01/01 02:37:59;;;;;;;3.67;2.67;;;12.30;92.50;;;;;;472227;250;28377;-80
2023/01/01 02:40:01;;;;;;;5.63;2.73;;;12.20;92.70;;;;;;472227;250;29025;-79
2023/01/01 02:42:02;;;;;;;3.90;2.57;;;12.20;92.40;;;;;;472205;250;28716;-80
2023/01/01 02:44:03;;;;;;;4.23;2.40;;;12.20;92.60;;;;;;472252;251;28790;-80
2023/01/01 02:46:04;;;;;;;3.40;2.53;;;12.10;92.70;;;;;;472245;250;28730;-79
2023/01/01 02:48:06;;;;;;;2.70;2.47;;;12.10;92.60;;;;;;472206;250;28472;-80
2023/01/01 02:50:07;;;;;;;4.27;2.60;;;12.00;92.80;;;;;;472192;250;28386;-80
2023/01/01 02:52:08;;;;;;;4.90;2.83;;;12.00;92.90;;;;;;472214;250;28259;-80
2023/01/01 02:54:09;;;;;;;5.80;2.40;;;12.00;93.00;;;;;;472242;250;28205;-80
2023/01/01 02:56:11;;;;;;;6.23;2.70;;;12.00;93.00;;;;;;472230;250;28290;-80
2023/01/01 03:00:34;;;;;;;2.80;2.60;;;12.10;92.40;;;;;;472144;252;28401;-77
2023/01/01 03:02:33;;;;;;;4.40;2.67;;;12.20;92.40;;;;;;472105;251;28593;-80
2023/01/01 03:04:36;;;;;;;6.33;2.80;;;;;;;;;;472203;250;28243;-81
2023/01/01 03:06:37;;;;;;;3.90;2.97;;;12.00;92.80;;;;;;472193;252;28147;-81
2023/01/01 03:08:38;;;;;;;6.57;2.47;;;12.00;93.00;;;;;;472209;250;28304;-80
2023/01/01 03:10:39;;;;;;;2.77;2.20;;;12.00;93.00;;;;;;472205;250;28154;-80
2023/01/01 03:12:42;;;;;;;8.17;2.70;;;12.10;93.00;;;;;;472197;250;28396;-79
2023/01/01 03:14:42;;;;;;;4.90;2.60;;;12.10;92.90;;;;;;472104;250;28244;-79
2023/01/01 03:16:43;;;;;;;4.40;2.93;;;12.10;93.10;;;;;;472217;250;28088;-79
2023/01/01 03:18:44;;;;;;;3.47;2.83;;;12.10;93.00;;;;;;472212;250;28112;-80
2023/01/01 03:20:46;;;;;;;5.77;2.77;;;12.20;93.10;;;;;;472200;250;28158;-80
2023/01/01 03:22:47;;;;;;;2.73;2.47;;;12.10;93.30;;;;;;472191;250;28568;-81
2023/01/01 03:24:48;;;;;;;4.70;2.67;;;12.10;93.50;;;;;;472204;250;29257;-80
2023/01/01 03:26:49;;;;;;;4.77;3.03;;;12.10;93.50;;;;;;472204;250;28621;-81
2023/01/01 03:28:50;;;;;;;4.77;2.77;;;12.00;94.20;;;;;;472216;247;28235;-79
2023/01/01 03:30:52;;;;;;;3.97;2.80;;;11.90;94.60;;;;;;472193;252;28463;-80
2023/01/01 03:33:06;;;;;;;2.63;2.30;;;11.80;94.80;;;;;;472199;250;28294;-80
2023/01/01 03:35:06;;;;;;;3.03;2.53;;;11.90;94.80;;;;;;472119;250;28357;-79
2023/01/01 03:37:07;;;;;;;3.60;2.70;;;11.90;94.10;;;;;;472148;250;28418;-77
2023/01/01 03:39:09;;;;;;;4.50;2.70;;;11.80;95.10;;;;;;472174;247;28668;-78
2023/01/01 03:41:10;;;;;;;6.10;2.80;;;11.70;95.20;;;;;;472180;250;28119;-79
2023/01/01 03:43:11;;;;;;;5.70;2.87;;;11.80;95.10;;;;;;472200;250;28302;-79
2023/01/01 03:45:12;;;;;;;4.17;2.50;;;11.80;95.10;;;;;;472188;250;28617;-80
2023/01/01 03:47:14;;;;;;;7.07;3.10;;;11.80;95.00;;;;;;472204;252;28758;-81
2023/01/01 03:49:15;;;;;;;3.83;2.60;;;11.90;94.90;;;;;;472217;246;29332;-79
2023/01/01 03:51:16;;;;;;;5.53;2.37;;;11.90;94.80;;;;;;472211;250;27967;-79
2023/01/01 03:53:17;;;;;;;4.73;2.67;;;11.90;94.80;;;;;;472188;250;28179;-79
2023/01/01 03:55:19;;;;;;;7.87;2.67;;;12.00;94.80;;;;;;472192;250;28381;-79
2023/01/01 03:57:20;;;;;;;6.53;2.73;;;12.00;94.60;;;;;;472189;250;28106;-81
2023/01/01 03:59:21;;;;;;;4.87;2.50;;;12.00;94.60;;;;;;472190;251;28041;-80
2023/01/01 04:01:22;;;;;;;4.30;2.90;;;12.10;94.40;;;;;;472184;252;27927;-80
2023/01/01 04:03:24;;;;;;;3.43;2.30;;;12.20;94.00;;;;;;472257;250;28281;-79
2023/01/01 04:05:25;;;;;;;3.30;2.83;;;12.10;94.20;;;;;;472231;250;28169;-79
2023/01/01 04:07:26;;;;;;;4.13;2.40;;;12.20;94.10;;;;;;472213;250;28218;-79
2023/01/01 04:09:27;;;;;;;7.63;3.10;;;12.10;94.20;;;;;;472147;250;28955;-81
2023/01/01 04:13:48;;;;;;;4.50;2.60;;;12.10;94.20;;;;;;472141;252;28661;-80
2023/01/01 04:15:49;;;;;;;7.27;2.23;;;12.00;94.40;;;;;;472212;250;28596;-79
2023/01/01 04:17:50;;;;;;;5.77;2.87;;;12.10;94.40;;;;;;472177;250;28248;-79
2023/01/01 04:19:52;;;;;;;4.73;2.60;;;12.00;94.60;;;;;;472159;250;28314;-79
2023/01/01 04:21:53;;;;;;;7.47;2.60;;;11.90;95.00;;;;;;472205;250;28132;-79
2023/01/01 04:23:54;;;;;;;5.57;2.70;;;11.80;95.30;;;;;;472252;250;28236;-81
2023/01/01 04:25:55;;;;;;;6.40;2.67;;;11.80;95.40;;;;;;472209;250;28240;-81
2023/01/01 04:28:02;;;;;;;3.77;2.67;;;11.90;95.30;;;;;;472178;250;28280;-80
2023/01/01 04:30:01;;;;;;;2.80;2.50;;;12.00;95.10;;;;;;472053;252;28667;-80
2023/01/01 04:32:02;;;;;;;5.43;2.73;;;11.90;95.30;;;;;;472186;250;28169;-80
2023/01/01 04:34:03;;;;;;;3.20;2.53;;;11.90;95.40;;;;;;472208;250;28239;-79
2023/01/01 04:36:05;;;;;;;8.63;2.77;;;11.90;95.40;;;;;;472217;250;28257;-81
2023/01/01 04:38:06;;;;;;;6.73;2.73;;;11.90;95.20;;;;;;472185;250;28098;-80
2023/01/01 04:40:07;;;;;;;7.20;2.27;;;11.80;95.60;;;;;;472165;251;28355;-80
2023/01/01 04:42:08;;;;;;;6.63;2.90;;;11.90;95.20;;;;;;472195;250;28165;-80
2023/01/01 04:44:10;;;;;;;8.53;2.87;;;11.90;95.10;;;;;;472106;251;28171;-80
2023/01/01 04:46:11;;;;;;;3.37;2.53;;;11.80;95.30;;;;;;472228;252;28001;-79
2023/01/01 04:48:12;;;;;;;6.00;2.80;;;11.90;94.90;;;;;;472193;250;28807;-80
2023/01/01 04:50:13;;;;;;;4.33;2.47;;;11.80;95.10;;;;;;472188;250;29504;-80
2023/01/01 04:52:15;;;;;;;3.83;2.23;;;11.80;95.10;;;;;;472202;250;28601;-79
2023/01/01 04:54:16;;;;;;;5.70;2.53;;;11.80;95.30;;;;;;472182;246;28611;-80
2023/01/01 04:56:17;;;;;;;5.67;2.33;;;11.80;95.40;;;;;;472217;250;28410;-79
2023/01/01 04:58:18;;;;;;;3.67;2.40;;;11.70;95.50;;;;;;472157;250;28428;-80
2023/01/01 05:00:21;;;;;;;3.63;2.37;;;11.70;95.40;;;;;;472184;250;28057;-79
2023/01/01 05:02:21;;;;;;;5.23;2.70;;;11.80;95.10;;;;;;472081;252;28196;-78
2023/01/01 05:04:22;;;;;;;6.30;3.03;;;11.80;95.10;;;;;;472206;252;28218;-80
2023/01/01 05:06:24;;;;;;;8.20;2.80;;;11.80;95.20;;;;;;472202;252;28168;-80
2023/01/01 05:08:25;;;;;;;4.30;2.70;;;11.70;95.40;;;;;;472159;250;28347;-80
2023/01/01 05:10:26;;;;;;;3.83;2.23;;;11.70;95.30;;;;;;472162;250;28479;-80
2023/01/01 05:12:27;;;;;;;5.60;3.07;;;11.70;95.20;;;;;;472169;250;28852;-80
2023/01/01 05:14:28;;;;;;;2.47;2.27;;;11.70;95.20;;;;;;472204;250;28736;-79
2023/01/01 05:16:30;;;;;;;2.53;2.30;;;11.70;95.50;;;;;;472180;250;28663;-80
2023/01/01 05:18:31;;;;;;;6.97;2.90;;;11.70;95.40;;;;;;472208;250;28483;-80
2023/01/01 05:20:32;;;;;;;6.13;3.33;;;11.70;95.20;;;;;;472198;247;28160;-80
2023/01/01 05:22:33;;;;;;;3.30;2.80;;;11.80;95.00;;;;;;472200;250;28205;-81
2023/01/01 05:24:36;;;;;;;5.70;2.83;;;11.80;95.00;;;;;;472244;250;27994;-79
2023/01/01 05:26:36;;;;;;;5.27;2.10;;;11.70;95.30;;;;;;472179;250;28093;-81
2023/01/01 05:28:37;;;;;;;6.80;2.23;;;11.60;95.50;;;;;;472249;250;27961;-80
2023/01/01 05:30:39;;;;;;;4.60;2.30;;;11.50;95.80;;;;;;472237;250;28091;-79
2023/01/01 05:32:40;;;;;;;3.60;3.00;;;11.70;95.10;;;;;;472233;250;28152;-81
2023/01/01 05:34:41;;;;;;;3.87;3.03;;;11.70;95.10;;;;;;472257;250;28365;-81
2023/01/01 05:36:42;;;;;;;6.40;3.23;;;11.70;95.20;;;;;;472286;250;28096;-80
2023/01/01 05:38:43;;;;;;;9.90;2.90;;;11.50;95.50;;;;;;472232;250;28558;-79
2023/01/01 05:40:45;;;;;;;5.20;2.50;;;11.50;95.60;;;;;;472207;251;28792;-80
2023/01/01 05:42:46;;;;;;;4.00;2.30;;;11.60;95.50;;;;;;472202;250;28867;-80
2023/01/01 05:44:47;;;;;;;4.27;2.87;;;11.50;95.50;;;;;;472214;250;28035;-81
2023/01/01 05:46:48;;;;;;;8.33;3.10;;;11.60;95.20;;;;;;472200;250;28094;-79
2023/01/01 05:48:50;;;;;;;5.40;2.30;;;11.60;95.10;;;;;;472202;250;27922;-79
2023/01/01 05:50:51;;;;;;;3.63;2.50;;;11.60;94.80;;;;;;472164;247;28082;-80
2023/01/01 05:52:52;;;;;;;9.80;2.53;;;11.60;95.10;;;;;;472207;250;28172;-79
2023/01/01 05:54:53;;;;;;;10.77;3.13;;;11.60;95.00;;;;;;472226;250;28155;-81
2023/01/01 05:56:55;;;;;;;6.57;2.67;;;11.70;94.70;;;;;;472226;250;28202;-80
2023/01/01 05:58:56;;;;;;;5.27;2.70;;;11.70;94.70;;;;;;472204;250;28173;-80
2023/01/01 06:00:57;;;;;;;6.60;2.50;;;11.60;95.00;;;;;;472178;250;28885;-79
2023/01/01 06:02:58;;;;;;;6.43;2.70;;;11.50;95.30;;;;;;472226;250;28853;-80
2023/01/01 06:05:00;;;;;;;4.37;2.50;;;11.50;95.10;;;;;;472210;250;28724;-80
2023/01/01 06:07:01;;;;;;;3.97;2.93;;;11.60;95.00;;;;;;472222;251;28482;-80
2023/01/01 06:09:02;;;;;;;7.67;2.50;;;11.50;95.20;;;;;;472209;250;28035;-80
2023/01/01 06:11:03;;;;;;;4.53;2.53;;;11.60;94.90;;;;;;472189;250;28135;-79
2023/01/01 06:13:05;;;;;;;5.30;2.60;;;11.60;94.60;;;;;;472182;250;28063;-80
2023/01/01 06:15:06;;;;;;;5.60;3.03;;;11.60;94.60;;;;;;472228;251;28004;-80
2023/01/01 06:17:07;;;;;;;4.57;2.70;;;11.50;94.90;;;;;;472225;250;28124;-80
2023/01/01 06:19:08;;;;;;;5.10;2.70;;;11.40;95.00;;;;;;472216;250;28208;-80
2023/01/01 06:21:10;;;;;;;5.80;2.60;;;11.40;95.10;;;;;;472192;250;28320;-81
2023/01/01 06:23:11;;;;;;;5.57;2.60;;;11.50;94.90;;;;;;472203;252;28077;-80
2023/01/01 06:25:12;;;;;;;6.13;3.13;;;11.50;94.70;;;;;;472230;250;28216;-80
2023/01/01 06:27:13;;;;;;;9.93;2.60;;;11.60;94.60;;;;;;472188;250;28580;-80
2023/01/01 06:29:15;;;;;;;9.07;3.00;;;11.60;94.50;;;;;;472204;251;28791;-80
2023/01/01 06:31:16;;;;;;;5.13;2.20;;;11.60;94.60;;;;;;472197;250;28633;-80
2023/01/01 06:33:17;;;;;;;8.70;2.80;;;11.50;94.80;;;;;;472212;250;28185;-79
2023/01/01 06:35:18;;;;;;;7.23;2.57;;;11.40;94.90;;;;;;472219;250;28055;-80
2023/01/01 06:37:20;;;;;;;6.30;2.50;;;11.40;95.10;;;;;;472217;250;28092;-79
2023/01/01 06:39:21;;;;;;;4.73;2.33;;;11.40;95.10;;;;;;472202;250;27997;-80
2023/01/01 06:41:22;;;;;;;5.23;2.80;;;11.40;95.00;;;;;;472188;250;28213;-79
2023/01/01 06:43:23;;;;;;;4.73;2.77;;;11.40;94.90;;;;;;472213;250;28152;-80
2023/01/01 06:45:25;;;;;;;6.00;2.70;;;11.50;94.80;;;;;;472249;250;28147;-80
2023/01/01 06:47:26;;;;;;;8.20;2.30;;;11.50;94.70;;;;;;472238;250;28034;-79
2023/01/01 06:49:27;;;;;;;9.50;2.83;;;11.50;94.80;;;;;;472222;251;28035;-79
2023/01/01 06:51:29;;;;;;;5.80;2.97;;;11.40;95.00;;;;;;472252;250;28640;-79
2023/01/01 06:53:30;;;;;;;10.43;2.60;;;11.30;95.10;;;;;;472200;250;29386;-79
2023/01/01 06:55:31;;;;;;;4.30;2.77;;;11.30;95.40;;;;;;472204;252;28482;-79
2023/01/01 06:57:33;;;;;;;3.70;2.70;;;11.30;95.30;;;;;;472235;250;28070;-80
2023/01/01 06:59:34;;;;;;;5.50;2.77;;;11.30;95.20;;;;;;472184;251;28247;-80
2023/01/01 07:01:35;;;;;;;5.67;2.47;;;11.20;95.40;;;;;;472188;250;28402;-80
2023/01/01 07:03:36;;;;;;;6.87;2.53;;;11.10;95.70;;;;;;472190;250;27999;-79
2023/01/01 07:05:37;;;;;;;6.23;2.60;;;11.10;95.90;;;;;;472236;250;28135;-80
2023/01/01 07:07:39;;;;;;;5.60;2.57;;;11.10;96.00;;;;;;472223;250;27967;-79
2023/01/01 07:09:40;;;;;;;6.40;3.83;;;11.10;95.90;;;;;;472194;252;27881;-80
2023/01/01 07:11:41;;;;;;;5.83;2.40;;;11.10;95.80;;;;;;472198;250;28182;-79
2023/01/01 07:13:42;;;;;;;7.10;2.43;;;11.10;96.00;;;;;;472159;250;28627;-79
2023/01/01 07:15:44;;;;;;;7.87;3.10;;;11.10;95.80;;;;;;472198;250;28491;-81
2023/01/01 07:17:45;;;;;;;8.43;2.70;;;11.20;95.30;;;;;;472210;250;28629;-80
2023/01/01 07:19:46;;;;;;;4.80;2.40;;;11.20;95.40;;;;;;472213;250;28457;-80
2023/01/01 07:21:47;;;;;;;7.40;3.00;;;11.20;95.70;;;;;;472205;250;28106;-80
2023/01/01 07:23:49;;;;;;;6.47;2.23;;;11.20;95.40;;;;;;472153;250;28086;-80
2023/01/01 07:25:50;;;;;;;4.50;3.17;;;11.20;95.40;;;;;;472199;252;27909;-81
2023/01/01 07:27:51;;;;;;;5.87;2.80;;;11.10;95.40;;;;;;472225;250;27952;-80
2023/01/01 07:29:52;;;;;;;5.70;2.90;;;11.20;95.10;;;;;;472211;247;28096;-80
2023/01/01 07:31:54;;;;;;;8.00;3.10;;;11.30;94.90;;;;;;472213;250;27933;-80
2023/01/01 07:33:55;;;;;;;6.20;2.73;;;11.30;95.00;;;;;;472179;250;28151;-80
2023/01/01 07:35:56;;;;;;;8.60;2.67;;;11.20;95.00;;;;;;472168;250;28178;-80
2023/01/01 07:37:57;;;;;;;6.33;2.70;;;11.30;94.60;;;;;;472211;250;27962;-80
2023/01/01 07:39:59;;;;;;;5.90;2.70;;;11.30;94.60;;;;;;472212;250;28439;-80
2023/01/01 07:42:00;;;;;;;8.00;2.80;;;11.30;94.80;;;;;;472193;251;28207;-80
2023/01/01 07:44:01;;;;;;;6.03;2.30;;;11.20;94.80;;;;;;472158;250;28322;-79
2023/01/01 07:46:02;;;;;;;8.17;2.67;;;11.20;94.80;;;;;;472181;250;28037;-80
2023/01/01 07:48:04;;;;;;;7.83;3.27;;;11.30;94.70;;;;;;472214;250;28084;-80
2023/01/01 07:50:05;;;;;;;6.47;2.80;;;11.30;94.50;;;;;;472203;250;27908;-81
2023/01/01 07:52:06;;;;;;;8.80;3.00;;;11.30;94.70;;;;;;472184;250;28180;-81
2023/01/01 07:54:07;;;;;;;6.20;2.87;;;11.30;94.60;;;;;;472161;250;28015;-79
2023/01/01 07:56:09;;;;;;;10.20;2.83;;;11.30;94.80;;;;;;472186;247;28205;-79
2023/01/01 07:58:10;;;;;;;7.60;2.80;;;11.30;94.70;;;;;;472226;250;28190;-80
2023/01/01 08:00:11;;;;;;;5.73;2.47;;;11.20;94.70;;;;;;472215;250;28054;-79
2023/01/01 08:02:12;;;;;;;5.87;2.77;;;11.20;94.90;;;;;;472195;250;28596;-80
2023/01/01 08:04:14;;;;;;;8.67;2.63;;;11.30;94.60;;;;;;472202;250;28634;-79
2023/01/01 08:06:15;;;;;;;12.70;3.50;;;11.30;94.70;;;;;;472212;252;27863;-80
2023/01/01 08:08:16;;;;;;;8.90;2.67;;;11.20;94.80;;;;;;472205;250;28040;-79
2023/01/01 08:10:18;;;;;;;5.57;2.60;;;11.30;94.60;;;;;;472229;250;28000;-80
2023/01/01 08:12:19;;;;;;;7.63;3.03;;;11.30;94.60;;;;;;472134;252;28115;-79
2023/01/01 08:14:20;;;;;;;5.03;3.00;;;11.30;94.40;;;;;;472199;250;28154;-80
2023/01/01 08:16:21;;;;;;;7.20;3.07;;;11.30;94.30;;;;;;472240;250;28139;-80
2023/01/01 08:18:22;;;;;;;7.07;2.60;;;11.30;94.40;;;;;;472205;250;28131;-80
2023/01/01 08:20:24;;;;;;;6.30;3.23;;;11.30;94.50;;;;;;472205;250;28134;-79
2023/01/01 08:22:25;;;;;;;7.87;2.30;;;11.30;94.60;;;;;;472176;252;28467;-81
2023/01/01 08:24:26;;;;;;;7.27;2.60;;;11.30;94.20;;;;;;472196;250;28139;-80
2023/01/01 08:26:28;;;;;;;6.93;2.53;;;11.40;94.00;;;;;;472192;251;28043;-80
2023/01/01 08:28:29;;;;;;;3.17;2.20;;;11.40;94.00;;;;;;472165;250;28043;-80
2023/01/01 08:30:30;;;;;;;9.53;3.23;;;11.50;93.70;;;;;;472182;250;28247;-80
2023/01/01 08:32:31;;;;;;;8.00;2.93;;;11.50;93.40;;;;;;472173;250;28283;-80
2023/01/01 08:34:32;;;;;;;9.30;3.43;;;11.50;93.70;;;;;;472175;250;28186;-79
2023/01/01 08:36:34;;;;;;;5.97;2.43;;;11.50;93.80;;;;;;472194;250;28148;-79
2023/01/01 08:38:35;;;;;;;6.20;2.57;;;11.60;93.60;;;;;;472186;250;28116;-81
2023/01/01 08:40:36;;;;;;;9.83;2.80;;;11.60;93.40;;;;;;472171;251;29228;-80
2023/01/01 08:42:37;;;;;;;9.23;2.70;;;11.60;93.50;;;;;;472135;250;28707;-79
2023/01/01 08:44:39;;;;;;;4.27;2.40;;;11.70;93.00;;;;;;472126;250;29240;-80
2023/01/01 08:46:40;;;;;;;8.27;3.30;;;11.70;93.00;;;;;;472171;251;28015;-79
2023/01/01 08:48:41;;;;;;;9.67;2.97;;;11.70;93.10;;;;;;472154;252;28088;-80
2023/01/01 08:50:42;;;;;;;9.90;2.63;;;11.70;93.10;;;;;;472129;250;28167;-80
2023/01/01 08:52:44;;;;;;;9.90;3.00;;;11.70;92.90;;;;;;472114;250;28406;-80
2023/01/01 08:54:45;;;;;;;5.60;2.87;;;11.70;92.90;;;;;;472148;250;28199;-80
2023/01/01 08:56:46;;;;;;;5.97;2.80;;;11.70;92.80;;;;;;472182;250;28129;-80
2023/01/01 08:58:48;;;;;;;7.10;2.63;;;11.70;93.00;;;;;;472190;252;28285;-80
2023/01/01 09:00:49;;;;;;;7.17;3.30;;;11.70;93.00;;;;;;472174;251;28618;-80
2023/01/01 09:02:50;;;;;;;6.63;2.83;;;11.80;92.80;;;;;;472162;250;28890;-79
2023/01/01 09:04:51;;;;;;;5.70;2.80;;;11.90;92.40;;;;;;472216;250;28934;-80
2023/01/01 09:06:52;;;;;;;8.60;2.70;;;11.90;92.40;;;;;;472186;251;28618;-80
2023/01/01 09:08:54;;;;;;;7.93;3.20;;;12.00;92.00;;;;;;472212;250;28310;-80
2023/01/01 09:10:55;;;;;;;10.10;2.97;;;12.00;92.40;;;;;;472197;250;28259;-80
2023/01/01 09:12:56;;;;;;;4.03;2.37;;;12.00;92.10;;;;;;472172;250;28278;-80
2023/01/01 09:14:57;;;;;;;8.07;2.67;;;12.00;92.10;;;;;;472237;250;28158;-80
2023/01/01 09:16:59;;;;;;;9.33;3.43;;;12.00;92.30;;;;;;472238;250;28303;-80
2023/01/01 09:19:00;;;;;;;6.47;3.30;;;12.00;92.10;;;;;;472185;251;28159;-80
2023/01/01 09:21:01;;;;;;;4.93;3.10;;;12.00;91.70;;;;;;472190;250;28364;-81
2023/01/01 09:23:02;;;;;;;6.10;2.90;;;12.10;91.70;;;;;;472153;250;28372;-79
2023/01/01 09:25:04;;;;;;;11.20;2.87;;;12.10;91.30;;;;;;472209;250;28800;-81
2023/01/01 09:27:05;;;;;;;7.60;2.77;;;12.20;91.40;;;;;;472234;250;28832;-80
2023/01/01 09:29:06;;;;;;;12.27;3.03;;;12.20;91.70;;;;;;472213;250;28662;-80
2023/01/01 09:31:07;;;;;;;7.43;3.30;;;12.20;91.60;;;;;;472204;250;28282;-81
2023/01/01 09:33:09;;;;;;;11.93;3.17;;;12.20;91.30;;;;;;472216;252;28276;-80
2023/01/01 09:35:10;;;;;;;7.47;3.27;;;12.20;91.30;;;;;;472196;250;28663;-80
2023/01/01 09:37:11;;;;;;;7.37;3.00;;;12.20;91.40;;;;;;472230;251;28129;-79
2023/01/01 09:39:13;;;;;;;5.30;2.80;;;12.30;91.40;;;;;;472246;250;28480;-80
2023/01/01 09:41:14;;;;;;;12.73;3.33;;;12.30;91.00;;;;;;472212;250;28010;-80
2023/01/01 09:43:15;;;;;;;9.90;3.13;;;12.30;91.40;;;;;;472207;250;28627;-80
2023/01/01 09:45:16;;;;;;;10.90;3.07;;;12.30;91.40;;;;;;472212;250;29058;-80
2023/01/01 09:47:18;;;;;;;9.20;3.00;;;12.40;91.00;;;;;;472230;251;28725;-80
2023/01/01 09:49:19;;;;;;;5.67;2.80;;;12.40;90.80;;;;;;472217;250;28683;-80
2023/01/01 09:51:20;;;;;;;8.70;2.60;;;12.40;91.30;;;;;;472176;250;28571;-79
2023/01/01 09:53:21;;;;;;;8.20;2.80;;;12.40;90.50;;;;;;472171;250;28522;-80
2023/01/01 09:55:23;;;;;;;4.80;2.83;;;12.50;90.80;;;;;;472218;250;28835;-79
2023/01/01 09:57:24;;;;;;;3.70;2.60;;;12.50;90.50;;;;;;472077;252;28107;-80
2023/01/01 09:59:25;;;;;;;7.63;3.40;;;12.40;90.60;;;;;;472208;250;28411;-80
2023/01/01 10:01:26;;;;;;;9.73;2.80;;;12.40;90.80;;;;;;472179;250;28371;-80
2023/01/01 10:03:28;;;;;;;14.63;2.90;;;12.50;90.90;;;;;;472168;251;28520;-80
2023/01/01 10:05:29;;;;;;;7.63;3.00;;;12.50;90.70;;;;;;472226;250;28869;-80
2023/01/01 10:07:30;;;;;;;5.63;2.80;;;12.50;90.60;;;;;;472213;250;29043;-80
2023/01/01 10:09:31;;;;;;;9.97;3.03;;;12.50;90.80;;;;;;472209;250;28816;-80
2023/01/01 10:11:34;;;;;;;7.47;2.80;;;;;;;;;;472185;250;28261;-79
2023/01/01 10:13:35;;;;;;;8.87;3.23;;;12.60;89.70;;;;;;472219;247;26982;-80
2023/01/01 10:15:36;;;;;;;6.67;3.20;;;12.70;89.40;;;;;;472219;250;29285;-79
2023/01/01 10:17:37;;;;;;;9.70;2.83;;;12.70;89.40;;;;;;472219;250;28994;-80
2023/01/01 10:19:39;;;;;;;5.67;2.50;;;12.70;88.70;;;;;;472188;250;29417;-80
2023/01/01 10:21:40;;;;;;;7.00;2.60;;;12.80;89.60;;;;;;472186;250;28523;-80
2023/01/01 10:23:41;;;;;;;7.37;2.63;;;12.80;88.50;;;;;;472147;250;28874;-80
2023/01/01 10:25:42;;;;;;;6.30;3.40;;;12.80;87.90;;;;;;472166;247;28423;-80
2023/01/01 10:27:44;;;;;;;14.13;3.00;;;12.90;87.80;;;;;;472168;250;28130;-79
2023/01/01 10:29:45;;;;;;;6.50;2.87;;;12.80;88.40;;;;;;472170;250;28126;-79
2023/01/01 10:31:46;;;;;;;7.43;2.80;;;12.90;87.00;;;;;;472225;250;28134;-80
2023/01/01 10:33:48;;;;;;;7.10;2.90;;;12.90;87.80;;;;;;472232;250;28526;-81
2023/01/01 10:35:50;;;;;;;8.13;2.40;;;;;;;;;;472223;250;28844;-80